| Date | Time | Temp. (oF) | Dew Point (oF) | Rel. Hum. (%) | Press. (in.) | Wind Dir. | Wind Speed (mph) | Hourly Rainfall (in.) |
|
|---|---|---|---|---|---|---|---|---|---|
| 1 | 01/30 | 00:00 | 60 | 49 | 69 | 29.97 | S | 5 | 0.00 |
| 2 | 01/29 | 23:00 | 61 | 49 | 66 | 29.96 | S | 4 | 0.00 |
| 3 | 01/29 | 22:00 | 58 | 49 | 73 | 29.98 | SSE | 4 | 0.00 |
| 4 | 01/29 | 21:00 | 60 | 49 | 68 | 30.00 | SSW | 3 | 0.00 |
| 5 | 01/29 | 20:00 | 61 | 49 | 67 | 30.00 | SSW | 1 | 0.00 |
| 6 | 01/29 | 19:00 | 62 | 49 | 64 | 30.01 | SSW | 1 | 0.00 |
| 7 | 01/29 | 18:00 | 65 | 50 | 60 | 29.99 | S | 4 | 0.00 |
| 8 | 01/29 | 17:00 | 67 | 51 | 57 | 29.98 | S | 3 | 0.00 |
| 9 | 01/29 | 16:00 | 68 | 51 | 55 | 29.96 | SSW | 3 | 0.00 |
| 10 | 01/29 | 15:00 | 69 | 51 | 53 | 29.94 | SSW | 10 | 0.00 |
| 11 | 01/29 | 14:00 | 69 | 51 | 53 | 29.96 | S | 7 | 0.00 |
| 12 | 01/29 | 13:00 | 70 | 52 | 54 | 29.96 | SW | 8 | 0.00 |
| 13 | 01/29 | 12:00 | 68 | 51 | 55 | 29.99 | WNW | 8 | 0.00 |
| 14 | 01/29 | 11:00 | 62 | 48 | 62 | 30.00 | W | 1 | 0.00 |
| 15 | 01/29 | 10:00 | 50 | 44 | 82 | 30.00 | E | 1 | 0.00 |
| 16 | 01/29 | 09:00 | 39 | 38 | 97 | 30.02 | NNW | 1 | 0.00 |
| 17 | 01/29 | 08:00 | 35 | 33 | 95 | 30.01 | WNW | 0 | 0.00 |
| 18 | 01/29 | 07:00 | 36 | 34 | 93 | 29.99 | WNW | 0 | 0.00 |
| 19 | 01/29 | 06:00 | 37 | 34 | 92 | 29.98 | N | 0 | 0.00 |
| 20 | 01/29 | 05:00 | 38 | 35 | 90 | 29.96 | N | 0 | 0.00 |
| 21 | 01/29 | 04:00 | 39 | 35 | 88 | 29.97 | N | 1 | 0.00 |
| 22 | 01/29 | 03:00 | 42 | 36 | 81 | 29.96 | WSW | 0 | 0.00 |
| 23 | 01/29 | 02:00 | 45 | 36 | 73 | 29.96 | WSW | 0 | 0.00 |
| 24 | 01/29 | 01:00 | 50 | 37 | 62 | 29.97 | WSW | 1 | 0.00 |